sensor_id;sensor_type;location;lat;lon;timestamp;temperature;humidity
52899;DHT22;38763;53.096;6.062;2023-04-03T00:00:42;3.10;99.90
52899;DHT22;38763;53.096;6.062;2023-04-03T00:03:07;3.00;99.90
52899;DHT22;38763;53.096;6.062;2023-04-03T00:05:33;3.00;99.90
52899;DHT22;38763;53.096;6.062;2023-04-03T00:07:59;3.00;99.90
52899;DHT22;38763;53.096;6.062;2023-04-03T00:10:27;3.00;99.90
52899;DHT22;38763;53.096;6.062;2023-04-03T00:12:53;2.90;99.90
52899;DHT22;38763;53.096;6.062;2023-04-03T00:15:18;2.90;99.90
52899;DHT22;38763;53.096;6.062;2023-04-03T00:17:44;3.00;99.90
52899;DHT22;38763;53.096;6.062;2023-04-03T00:20:11;2.90;99.90
52899;DHT22;38763;53.096;6.062;2023-04-03T00:22:36;3.00;99.90
52899;DHT22;38763;53.096;6.062;2023-04-03T00:25:03;2.90;99.90
52899;DHT22;38763;53.096;6.062;2023-04-03T00:27:29;2.90;99.90
52899;DHT22;38763;53.096;6.062;2023-04-03T00:29:55;2.90;99.90
52899;DHT22;38763;53.096;6.062;2023-04-03T00:32:20;2.80;99.90
52899;DHT22;38763;53.096;6.062;2023-04-03T00:34:46;2.80;99.90
52899;DHT22;38763;53.096;6.062;2023-04-03T00:37:12;2.80;99.90
52899;DHT22;38763;53.096;6.062;2023-04-03T00:39:37;2.80;99.90
52899;DHT22;38763;53.096;6.062;2023-04-03T00:42:03;2.80;99.90
52899;DHT22;38763;53.096;6.062;2023-04-03T00:47:01;2.70;99.90
52899;DHT22;38763;53.096;6.062;2023-04-03T00:49:29;2.70;99.90
52899;DHT22;38763;53.096;6.062;2023-04-03T00:51:55;2.60;99.90
52899;DHT22;38763;53.096;6.062;2023-04-03T00:54:23;2.60;99.90
52899;DHT22;38763;53.096;6.062;2023-04-03T00:56:51;2.60;99.90
52899;DHT22;38763;53.096;6.062;2023-04-03T00:59:31;2.60;99.90
52899;DHT22;38763;53.096;6.062;2023-04-03T01:01:57;2.50;99.90
52899;DHT22;38763;53.096;6.062;2023-04-03T01:04:31;2.60;99.90
52899;DHT22;38763;53.096;6.062;2023-04-03T01:07:04;2.50;99.90
52899;DHT22;38763;53.096;6.062;2023-04-03T01:09:31;2.50;99.90
52899;DHT22;38763;53.096;6.062;2023-04-03T01:12:24;2.50;99.90
52899;DHT22;38763;53.096;6.062;2023-04-03T01:15:00;2.50;99.90
52899;DHT22;38763;53.096;6.062;2023-04-03T01:25:27;2.30;99.90
52899;DHT22;38763;53.096;6.062;2023-04-03T01:27:52;2.30;99.90
52899;DHT22;38763;53.096;6.062;2023-04-03T01:30:20;2.30;99.90
52899;DHT22;38763;53.096;6.062;2023-04-03T01:32:48;2.20;99.90
52899;DHT22;38763;53.096;6.062;2023-04-03T01:35:14;2.20;99.90
52899;DHT22;38763;53.096;6.062;2023-04-03T01:37:40;2.10;99.90
52899;DHT22;38763;53.096;6.062;2023-04-03T01:40:06;2.10;99.90
52899;DHT22;38763;53.096;6.062;2023-04-03T01:42:32;2.10;99.90
52899;DHT22;38763;53.096;6.062;2023-04-03T01:44:58;2.10;99.90
52899;DHT22;38763;53.096;6.062;2023-04-03T01:47:23;2.10;99.90
52899;DHT22;38763;53.096;6.062;2023-04-03T01:49:49;2.10;99.90
52899;DHT22;38763;53.096;6.062;2023-04-03T01:52:14;2.00;99.90
52899;DHT22;38763;53.096;6.062;2023-04-03T01:54:40;2.00;99.90
52899;DHT22;38763;53.096;6.062;2023-04-03T01:57:06;1.90;99.90
52899;DHT22;38763;53.096;6.062;2023-04-03T01:59:31;1.90;99.90
52899;DHT22;38763;53.096;6.062;2023-04-03T02:01:57;1.90;99.90
52899;DHT22;38763;53.096;6.062;2023-04-03T02:04:23;1.90;99.90
52899;DHT22;38763;53.096;6.062;2023-04-03T02:06:48;1.80;99.90
52899;DHT22;38763;53.096;6.062;2023-04-03T02:09:14;1.80;99.90
52899;DHT22;38763;53.096;6.062;2023-04-03T02:11:40;1.80;99.90
52899;DHT22;38763;53.096;6.062;2023-04-03T02:14:06;1.80;99.90
52899;DHT22;38763;53.096;6.062;2023-04-03T02:16:32;1.80;99.90
52899;DHT22;38763;53.096;6.062;2023-04-03T02:18:57;1.80;99.90
52899;DHT22;38763;53.096;6.062;2023-04-03T02:21:23;1.70;99.90
52899;DHT22;38763;53.096;6.062;2023-04-03T02:23:49;1.70;99.90
52899;DHT22;38763;53.096;6.062;2023-04-03T02:26:16;1.60;99.90
52899;DHT22;38763;53.096;6.062;2023-04-03T02:28:42;1.60;99.90
52899;DHT22;38763;53.096;6.062;2023-04-03T02:31:08;1.70;99.90
52899;DHT22;38763;53.096;6.062;2023-04-03T02:33:35;1.60;99.90
52899;DHT22;38763;53.096;6.062;2023-04-03T02:36:05;1.60;99.90
52899;DHT22;38763;53.096;6.062;2023-04-03T02:38:31;1.50;99.90
52899;DHT22;38763;53.096;6.062;2023-04-03T02:41:08;1.50;99.90
52899;DHT22;38763;53.096;6.062;2023-04-03T02:43:35;1.50;99.90
52899;DHT22;38763;53.096;6.062;2023-04-03T02:46:00;1.50;99.90
52899;DHT22;38763;53.096;6.062;2023-04-03T02:48:26;1.40;99.90
52899;DHT22;38763;53.096;6.062;2023-04-03T02:50:52;1.40;99.90
52899;DHT22;38763;53.096;6.062;2023-04-03T02:53:18;1.40;99.90
52899;DHT22;38763;53.096;6.062;2023-04-03T02:55:44;1.40;99.90
52899;DHT22;38763;53.096;6.062;2023-04-03T02:58:10;1.30;99.90
52899;DHT22;38763;53.096;6.062;2023-04-03T03:00:36;1.30;99.90
52899;DHT22;38763;53.096;6.062;2023-04-03T03:03:02;1.30;99.90
52899;DHT22;38763;53.096;6.062;2023-04-03T03:05:28;1.30;99.90
52899;DHT22;38763;53.096;6.062;2023-04-03T03:07:54;1.30;99.90
52899;DHT22;38763;53.096;6.062;2023-04-03T03:10:20;1.30;99.90
52899;DHT22;38763;53.096;6.062;2023-04-03T03:12:45;1.20;99.90
52899;DHT22;38763;53.096;6.062;2023-04-03T03:15:11;1.20;99.90
52899;DHT22;38763;53.096;6.062;2023-04-03T03:17:37;1.20;99.90
52899;DHT22;38763;53.096;6.062;2023-04-03T03:20:04;1.20;99.90
52899;DHT22;38763;53.096;6.062;2023-04-03T03:22:29;1.20;99.90
52899;DHT22;38763;53.096;6.062;2023-04-03T03:24:55;1.10;99.90
52899;DHT22;38763;53.096;6.062;2023-04-03T03:27:21;1.10;99.90
52899;DHT22;38763;53.096;6.062;2023-04-03T03:29:47;1.10;99.90
52899;DHT22;38763;53.096;6.062;2023-04-03T03:32:12;1.10;99.90
52899;DHT22;38763;53.096;6.062;2023-04-03T03:34:38;1.10;99.90
52899;DHT22;38763;53.096;6.062;2023-04-03T03:37:04;1.10;99.90
52899;DHT22;38763;53.096;6.062;2023-04-03T03:39:30;1.00;99.90
52899;DHT22;38763;53.096;6.062;2023-04-03T03:41:55;1.00;99.90
52899;DHT22;38763;53.096;6.062;2023-04-03T03:44:21;1.00;99.90
52899;DHT22;38763;53.096;6.062;2023-04-03T03:46:47;1.00;99.90
52899;DHT22;38763;53.096;6.062;2023-04-03T03:49:12;1.00;99.90
52899;DHT22;38763;53.096;6.062;2023-04-03T03:51:39;1.00;99.90
52899;DHT22;38763;53.096;6.062;2023-04-03T03:54:05;1.00;99.90
52899;DHT22;38763;53.096;6.062;2023-04-03T03:56:31;1.00;99.90
52899;DHT22;38763;53.096;6.062;2023-04-03T03:58:57;0.90;99.90
52899;DHT22;38763;53.096;6.062;2023-04-03T04:01:23;0.90;99.90
52899;DHT22;38763;53.096;6.062;2023-04-03T04:03:49;0.90;99.90
52899;DHT22;38763;53.096;6.062;2023-04-03T04:06:15;0.90;99.90
52899;DHT22;38763;53.096;6.062;2023-04-03T04:08:42;0.80;99.90
52899;DHT22;38763;53.096;6.062;2023-04-03T04:11:08;0.80;99.90
52899;DHT22;38763;53.096;6.062;2023-04-03T04:13:33;0.80;99.90
52899;DHT22;38763;53.096;6.062;2023-04-03T04:15:59;0.80;99.90
52899;DHT22;38763;53.096;6.062;2023-04-03T04:18:25;0.70;99.90
52899;DHT22;38763;53.096;6.062;2023-04-03T04:20:51;0.70;99.90
52899;DHT22;38763;53.096;6.062;2023-04-03T04:23:17;0.60;99.90
52899;DHT22;38763;53.096;6.062;2023-04-03T04:25:47;0.70;99.90
52899;DHT22;38763;53.096;6.062;2023-04-03T04:28:15;0.60;99.90
52899;DHT22;38763;53.096;6.062;2023-04-03T04:30:40;0.60;99.90
52899;DHT22;38763;53.096;6.062;2023-04-03T04:33:06;0.50;99.90
52899;DHT22;38763;53.096;6.062;2023-04-03T04:35:33;0.50;99.90
52899;DHT22;38763;53.096;6.062;2023-04-03T04:37:58;0.50;99.90
52899;DHT22;38763;53.096;6.062;2023-04-03T04:40:25;0.50;99.90
52899;DHT22;38763;53.096;6.062;2023-04-03T04:42:51;0.50;99.90
52899;DHT22;38763;53.096;6.062;2023-04-03T04:45:17;0.50;99.90
52899;DHT22;38763;53.096;6.062;2023-04-03T04:47:42;0.50;99.90
52899;DHT22;38763;53.096;6.062;2023-04-03T04:50:08;0.50;99.90
52899;DHT22;38763;53.096;6.062;2023-04-03T04:52:34;0.40;99.90
52899;DHT22;38763;53.096;6.062;2023-04-03T04:55:00;0.50;99.90
52899;DHT22;38763;53.096;6.062;2023-04-03T04:57:26;0.40;99.90
52899;DHT22;38763;53.096;6.062;2023-04-03T04:59:51;0.40;99.90
52899;DHT22;38763;53.096;6.062;2023-04-03T05:02:17;0.40;99.90
52899;DHT22;38763;53.096;6.062;2023-04-03T05:04:43;0.40;99.90
52899;DHT22;38763;53.096;6.062;2023-04-03T05:07:09;0.40;99.90
52899;DHT22;38763;53.096;6.062;2023-04-03T05:09:34;0.40;99.90
52899;DHT22;38763;53.096;6.062;2023-04-03T05:12:00;0.40;99.90
52899;DHT22;38763;53.096;6.062;2023-04-03T05:14:27;0.40;99.90
52899;DHT22;38763;53.096;6.062;2023-04-03T05:16:52;0.40;99.90
52899;DHT22;38763;53.096;6.062;2023-04-03T05:19:20;0.40;99.90
52899;DHT22;38763;53.096;6.062;2023-04-03T05:21:45;0.30;99.90
52899;DHT22;38763;53.096;6.062;2023-04-03T05:24:11;0.30;99.90
52899;DHT22;38763;53.096;6.062;2023-04-03T05:26:37;0.30;99.90
52899;DHT22;38763;53.096;6.062;2023-04-03T05:29:03;0.30;99.90
52899;DHT22;38763;53.096;6.062;2023-04-03T05:31:29;0.30;99.90
52899;DHT22;38763;53.096;6.062;2023-04-03T05:33:55;0.30;99.90
52899;DHT22;38763;53.096;6.062;2023-04-03T05:36:21;0.40;99.90
52899;DHT22;38763;53.096;6.062;2023-04-03T05:38:47;0.40;99.90
52899;DHT22;38763;53.096;6.062;2023-04-03T05:41:14;0.40;99.90
52899;DHT22;38763;53.096;6.062;2023-04-03T05:43:40;0.40;99.90
52899;DHT22;38763;53.096;6.062;2023-04-03T05:46:11;0.40;99.90
52899;DHT22;38763;53.096;6.062;2023-04-03T05:48:37;0.40;99.90
52899;DHT22;38763;53.096;6.062;2023-04-03T05:51:04;0.40;99.90
52899;DHT22;38763;53.096;6.062;2023-04-03T05:53:31;0.40;99.90
52899;DHT22;38763;53.096;6.062;2023-04-03T05:55:58;0.40;99.90
52899;DHT22;38763;53.096;6.062;2023-04-03T05:58:23;0.50;99.90
52899;DHT22;38763;53.096;6.062;2023-04-03T06:00:49;0.40;99.90
52899;DHT22;38763;53.096;6.062;2023-04-03T06:03:15;0.50;99.90
52899;DHT22;38763;53.096;6.062;2023-04-03T06:05:41;0.50;99.90
52899;DHT22;38763;53.096;6.062;2023-04-03T06:08:07;0.60;99.90
52899;DHT22;38763;53.096;6.062;2023-04-03T06:10:34;0.60;99.90
52899;DHT22;38763;53.096;6.062;2023-04-03T06:13:00;0.60;99.90
52899;DHT22;38763;53.096;6.062;2023-04-03T06:15:26;0.70;99.90
52899;DHT22;38763;53.096;6.062;2023-04-03T06:17:52;0.70;99.90
52899;DHT22;38763;53.096;6.062;2023-04-03T06:20:18;0.80;99.90
52899;DHT22;38763;53.096;6.062;2023-04-03T06:22:43;0.90;99.90
52899;DHT22;38763;53.096;6.062;2023-04-03T06:25:09;0.90;99.90
52899;DHT22;38763;53.096;6.062;2023-04-03T06:27:35;0.90;99.90
52899;DHT22;38763;53.096;6.062;2023-04-03T06:30:01;1.00;99.90
52899;DHT22;38763;53.096;6.062;2023-04-03T06:32:27;1.00;99.90
52899;DHT22;38763;53.096;6.062;2023-04-03T06:34:53;1.10;99.90
52899;DHT22;38763;53.096;6.062;2023-04-03T06:37:21;1.10;99.90
52899;DHT22;38763;53.096;6.062;2023-04-03T06:39:47;1.10;99.90
52899;DHT22;38763;53.096;6.062;2023-04-03T06:42:13;1.20;99.90
52899;DHT22;38763;53.096;6.062;2023-04-03T06:44:39;1.20;99.90
52899;DHT22;38763;53.096;6.062;2023-04-03T06:47:04;1.30;99.90
52899;DHT22;38763;53.096;6.062;2023-04-03T06:49:31;1.30;99.90
52899;DHT22;38763;53.096;6.062;2023-04-03T06:51:57;1.40;99.90
52899;DHT22;38763;53.096;6.062;2023-04-03T06:54:23;1.40;99.90
52899;DHT22;38763;53.096;6.062;2023-04-03T06:56:48;1.50;99.90
52899;DHT22;38763;53.096;6.062;2023-04-03T06:59:14;1.50;99.90
52899;DHT22;38763;53.096;6.062;2023-04-03T07:01:40;1.60;99.90
52899;DHT22;38763;53.096;6.062;2023-04-03T07:04:06;1.70;99.90
52899;DHT22;38763;53.096;6.062;2023-04-03T07:06:33;1.80;99.90
52899;DHT22;38763;53.096;6.062;2023-04-03T07:08:59;1.80;99.90
52899;DHT22;38763;53.096;6.062;2023-04-03T07:11:25;1.90;99.90
52899;DHT22;38763;53.096;6.062;2023-04-03T07:13:51;2.00;99.90
52899;DHT22;38763;53.096;6.062;2023-04-03T07:16:17;2.00;99.90
52899;DHT22;38763;53.096;6.062;2023-04-03T07:18:43;2.10;99.90
52899;DHT22;38763;53.096;6.062;2023-04-03T07:21:09;2.10;99.90
52899;DHT22;38763;53.096;6.062;2023-04-03T07:23:35;2.20;99.90
52899;DHT22;38763;53.096;6.062;2023-04-03T07:26:00;2.30;99.90
52899;DHT22;38763;53.096;6.062;2023-04-03T07:28:26;2.40;99.90
52899;DHT22;38763;53.096;6.062;2023-04-03T07:30:59;2.40;99.90
52899;DHT22;38763;53.096;6.062;2023-04-03T07:33:25;2.50;99.90
52899;DHT22;38763;53.096;6.062;2023-04-03T07:35:51;2.60;99.90
52899;DHT22;38763;53.096;6.062;2023-04-03T07:38:17;2.70;99.90
52899;DHT22;38763;53.096;6.062;2023-04-03T07:40:50;2.70;99.90
52899;DHT22;38763;53.096;6.062;2023-04-03T07:43:19;2.80;99.90
52899;DHT22;38763;53.096;6.062;2023-04-03T07:45:46;2.90;99.90
52899;DHT22;38763;53.096;6.062;2023-04-03T07:48:15;3.00;99.90
52899;DHT22;38763;53.096;6.062;2023-04-03T07:50:42;3.00;99.90
52899;DHT22;38763;53.096;6.062;2023-04-03T07:53:08;3.00;99.90
52899;DHT22;38763;53.096;6.062;2023-04-03T07:55:34;3.10;99.90
52899;DHT22;38763;53.096;6.062;2023-04-03T07:58:02;3.20;99.90
52899;DHT22;38763;53.096;6.062;2023-04-03T08:00:28;3.30;99.90
52899;DHT22;38763;53.096;6.062;2023-04-03T08:02:55;3.40;99.90
52899;DHT22;38763;53.096;6.062;2023-04-03T08:05:21;3.40;99.90
52899;DHT22;38763;53.096;6.062;2023-04-03T08:07:47;3.60;99.90
52899;DHT22;38763;53.096;6.062;2023-04-03T08:10:14;3.60;99.90
52899;DHT22;38763;53.096;6.062;2023-04-03T08:12:40;3.80;99.90
52899;DHT22;38763;53.096;6.062;2023-04-03T08:15:07;3.90;99.90
52899;DHT22;38763;53.096;6.062;2023-04-03T08:17:34;3.90;99.90
52899;DHT22;38763;53.096;6.062;2023-04-03T08:20:00;4.00;99.90
52899;DHT22;38763;53.096;6.062;2023-04-03T08:22:26;4.10;99.90
52899;DHT22;38763;53.096;6.062;2023-04-03T08:24:52;4.20;99.90
52899;DHT22;38763;53.096;6.062;2023-04-03T08:27:17;4.30;99.90
52899;DHT22;38763;53.096;6.062;2023-04-03T08:29:43;4.40;99.90
52899;DHT22;38763;53.096;6.062;2023-04-03T08:32:09;4.60;99.90
52899;DHT22;38763;53.096;6.062;2023-04-03T08:34:34;4.70;99.90
52899;DHT22;38763;53.096;6.062;2023-04-03T08:37:02;4.70;99.90
52899;DHT22;38763;53.096;6.062;2023-04-03T08:39:28;4.70;99.90
52899;DHT22;38763;53.096;6.062;2023-04-03T08:41:57;4.80;99.90
52899;DHT22;38763;53.096;6.062;2023-04-03T08:44:38;5.00;99.90
52899;DHT22;38763;53.096;6.062;2023-04-03T08:47:24;5.00;99.90
52899;DHT22;38763;53.096;6.062;2023-04-03T08:49:58;5.20;99.90
52899;DHT22;38763;53.096;6.062;2023-04-03T08:57:46;5.40;99.90
52899;DHT22;38763;53.096;6.062;2023-04-03T09:00:21;5.50;99.90
52899;DHT22;38763;53.096;6.062;2023-04-03T09:02:55;5.50;99.90
52899;DHT22;38763;53.096;6.062;2023-04-03T09:05:31;5.70;99.90
52899;DHT22;38763;53.096;6.062;2023-04-03T09:08:00;5.70;99.90
52899;DHT22;38763;53.096;6.062;2023-04-03T09:10:33;5.70;99.90
52899;DHT22;38763;53.096;6.062;2023-04-03T09:15:53;5.80;99.90
52899;DHT22;38763;53.096;6.062;2023-04-03T09:18:32;6.00;99.90
52899;DHT22;38763;53.096;6.062;2023-04-03T09:21:13;6.10;99.90
52899;DHT22;38763;53.096;6.062;2023-04-03T09:23:45;6.30;99.90
52899;DHT22;38763;53.096;6.062;2023-04-03T09:26:19;6.30;99.90
52899;DHT22;38763;53.096;6.062;2023-04-03T09:28:48;6.30;99.90
52899;DHT22;38763;53.096;6.062;2023-04-03T09:33:50;6.40;99.90
52899;DHT22;38763;53.096;6.062;2023-04-03T09:39:11;6.60;99.90
52899;DHT22;38763;53.096;6.062;2023-04-03T09:41:37;6.60;99.90
52899;DHT22;38763;53.096;6.062;2023-04-03T09:44:17;6.70;99.90
52899;DHT22;38763;53.096;6.062;2023-04-03T09:46:43;6.70;99.90
52899;DHT22;38763;53.096;6.062;2023-04-03T09:49:10;6.70;99.90
52899;DHT22;38763;53.096;6.062;2023-04-03T09:51:37;6.70;98.40
52899;DHT22;38763;53.096;6.062;2023-04-03T09:56:50;6.90;97.40
52899;DHT22;38763;53.096;6.062;2023-04-03T09:59:16;7.00;97.70
52899;DHT22;38763;53.096;6.062;2023-04-03T10:01:56;7.10;98.00
52899;DHT22;38763;53.096;6.062;2023-04-03T10:04:22;7.20;96.30
52899;DHT22;38763;53.096;6.062;2023-04-03T10:06:51;7.20;95.20
52899;DHT22;38763;53.096;6.062;2023-04-03T10:12:09;7.30;95.20
52899;DHT22;38763;53.096;6.062;2023-04-03T10:14:54;7.30;95.20
52899;DHT22;38763;53.096;6.062;2023-04-03T10:19:50;7.50;97.10
52899;DHT22;38763;53.096;6.062;2023-04-03T10:22:55;7.70;99.90
52899;DHT22;38763;53.096;6.062;2023-04-03T10:25:40;7.60;99.90
52899;DHT22;38763;53.096;6.062;2023-04-03T10:30:53;7.70;94.70
52899;DHT22;38763;53.096;6.062;2023-04-03T10:36:39;7.80;96.60
52899;DHT22;38763;53.096;6.062;2023-04-03T10:52:40;8.20;99.90
52899;DHT22;38763;53.096;6.062;2023-04-03T10:57:58;8.30;99.90
52899;DHT22;38763;53.096;6.062;2023-04-03T11:00:43;8.30;93.40
52899;DHT22;38763;53.096;6.062;2023-04-03T11:06:18;8.50;93.60
52899;DHT22;38763;53.096;6.062;2023-04-03T11:08:52;8.50;91.40
52899;DHT22;38763;53.096;6.062;2023-04-03T11:11:27;8.60;90.10
52899;DHT22;38763;53.096;6.062;2023-04-03T11:14:02;8.40;95.10
52899;DHT22;38763;53.096;6.062;2023-04-03T11:16:30;8.40;92.80
52899;DHT22;38763;53.096;6.062;2023-04-03T11:19:11;8.40;91.90
52899;DHT22;38763;53.096;6.062;2023-04-03T11:21:46;8.30;91.60
52899;DHT22;38763;53.096;6.062;2023-04-03T11:24:32;8.30;94.00
52899;DHT22;38763;53.096;6.062;2023-04-03T11:27:00;8.40;93.00
52899;DHT22;38763;53.096;6.062;2023-04-03T11:29:36;8.30;92.50
52899;DHT22;38763;53.096;6.062;2023-04-03T11:35:07;8.20;92.00
52899;DHT22;38763;53.096;6.062;2023-04-03T11:37:43;8.20;92.50
52899;DHT22;38763;53.096;6.062;2023-04-03T11:43:04;8.40;92.80
52899;DHT22;38763;53.096;6.062;2023-04-03T11:45:37;8.30;92.00
52899;DHT22;38763;53.096;6.062;2023-04-03T11:50:58;8.40;92.10
52899;DHT22;38763;53.096;6.062;2023-04-03T11:53:35;8.40;92.80
52899;DHT22;38763;53.096;6.062;2023-04-03T12:01:57;8.40;92.10
52899;DHT22;38763;53.096;6.062;2023-04-03T12:04:27;8.40;92.60
52899;DHT22;38763;53.096;6.062;2023-04-03T12:07:00;8.40;92.80
52899;DHT22;38763;53.096;6.062;2023-04-03T12:09:33;8.50;93.20
52899;DHT22;38763;53.096;6.062;2023-04-03T12:12:01;8.40;92.30
52899;DHT22;38763;53.096;6.062;2023-04-03T12:14:46;8.50;93.40
52899;DHT22;38763;53.096;6.062;2023-04-03T12:17:22;8.50;92.60
52899;DHT22;38763;53.096;6.062;2023-04-03T12:19:49;8.50;92.20
52899;DHT22;38763;53.096;6.062;2023-04-03T12:22:19;8.50;92.10
52899;DHT22;38763;53.096;6.062;2023-04-03T12:24:51;8.40;92.30
52899;DHT22;38763;53.096;6.062;2023-04-03T12:32:36;8.50;99.90
52899;DHT22;38763;53.096;6.062;2023-04-03T12:35:28;8.50;92.60
52899;DHT22;38763;53.096;6.062;2023-04-03T12:48:56;8.50;92.30
52899;DHT22;38763;53.096;6.062;2023-04-03T12:51:38;8.50;92.30
52899;DHT22;38763;53.096;6.062;2023-04-03T12:56:49;8.40;91.10
52899;DHT22;38763;53.096;6.062;2023-04-03T12:59:25;8.40;92.90
52899;DHT22;38763;53.096;6.062;2023-04-03T13:02:02;8.50;91.80
52899;DHT22;38763;53.096;6.062;2023-04-03T13:04:30;8.40;91.70
52899;DHT22;38763;53.096;6.062;2023-04-03T13:06:56;8.50;91.70
52899;DHT22;38763;53.096;6.062;2023-04-03T13:09:31;8.60;99.50
52899;DHT22;38763;53.096;6.062;2023-04-03T13:11:58;8.40;91.60
52899;DHT22;38763;53.096;6.062;2023-04-03T13:14:27;8.50;93.80
52899;DHT22;38763;53.096;6.062;2023-04-03T13:19:20;8.50;92.70
52899;DHT22;38763;53.096;6.062;2023-04-03T13:21:48;8.50;92.20
52899;DHT22;38763;53.096;6.062;2023-04-03T13:24:15;8.50;93.20
52899;DHT22;38763;53.096;6.062;2023-04-03T13:26:41;8.50;94.50
52899;DHT22;38763;53.096;6.062;2023-04-03T13:29:22;8.60;99.90
52899;DHT22;38763;53.096;6.062;2023-04-03T13:31:53;8.60;96.00
52899;DHT22;38763;53.096;6.062;2023-04-03T13:34:22;8.50;92.20
52899;DHT22;38763;53.096;6.062;2023-04-03T13:41:49;8.60;92.80
52899;DHT22;38763;53.096;6.062;2023-04-03T13:49:34;8.70;93.40
52899;DHT22;38763;53.096;6.062;2023-04-03T13:52:17;8.70;93.60
52899;DHT22;38763;53.096;6.062;2023-04-03T13:54:56;8.80;93.10
52899;DHT22;38763;53.096;6.062;2023-04-03T13:57:22;8.80;93.20
52899;DHT22;38763;53.096;6.062;2023-04-03T13:59:48;8.70;91.60
52899;DHT22;38763;53.096;6.062;2023-04-03T14:02:19;8.90;99.90
52899;DHT22;38763;53.096;6.062;2023-04-03T14:04:56;8.80;95.30
52899;DHT22;38763;53.096;6.062;2023-04-03T14:07:25;8.80;94.30
52899;DHT22;38763;53.096;6.062;2023-04-03T14:09:52;8.90;93.30
52899;DHT22;38763;53.096;6.062;2023-04-03T14:12:26;8.90;99.90
52899;DHT22;38763;53.096;6.062;2023-04-03T14:14:53;8.90;95.80
52899;DHT22;38763;53.096;6.062;2023-04-03T14:17:21;8.80;95.70
52899;DHT22;38763;53.096;6.062;2023-04-03T14:19:49;8.80;94.20
52899;DHT22;38763;53.096;6.062;2023-04-03T14:22:19;8.80;94.00
52899;DHT22;38763;53.096;6.062;2023-04-03T14:24:47;8.80;93.90
52899;DHT22;38763;53.096;6.062;2023-04-03T14:27:25;8.80;92.70
52899;DHT22;38763;53.096;6.062;2023-04-03T14:29:52;8.80;92.90
52899;DHT22;38763;53.096;6.062;2023-04-03T14:32:20;8.70;92.10
52899;DHT22;38763;53.096;6.062;2023-04-03T14:34:47;8.60;92.10
52899;DHT22;38763;53.096;6.062;2023-04-03T14:37:19;8.60;93.30
52899;DHT22;38763;53.096;6.062;2023-04-03T14:39:46;8.70;93.20
52899;DHT22;38763;53.096;6.062;2023-04-03T14:42:18;8.70;93.40
52899;DHT22;38763;53.096;6.062;2023-04-03T14:44:44;8.90;93.30
52899;DHT22;38763;53.096;6.062;2023-04-03T14:47:11;8.80;93.40
52899;DHT22;38763;53.096;6.062;2023-04-03T14:49:37;8.80;92.80
52899;DHT22;38763;53.096;6.062;2023-04-03T14:52:03;8.80;92.40
52899;DHT22;38763;53.096;6.062;2023-04-03T14:54:29;8.70;93.00
52899;DHT22;38763;53.096;6.062;2023-04-03T14:56:58;8.80;93.60
52899;DHT22;38763;53.096;6.062;2023-04-03T14:59:31;8.80;92.60
52899;DHT22;38763;53.096;6.062;2023-04-03T15:01:57;8.80;94.10
52899;DHT22;38763;53.096;6.062;2023-04-03T15:04:23;8.70;92.50
52899;DHT22;38763;53.096;6.062;2023-04-03T15:06:51;8.70;93.50
52899;DHT22;38763;53.096;6.062;2023-04-03T15:09:25;8.70;94.60
52899;DHT22;38763;53.096;6.062;2023-04-03T15:11:52;8.90;96.50
52899;DHT22;38763;53.096;6.062;2023-04-03T15:14:18;8.90;93.70
52899;DHT22;38763;53.096;6.062;2023-04-03T15:16:44;8.90;93.70
52899;DHT22;38763;53.096;6.062;2023-04-03T15:19:10;8.80;94.10
52899;DHT22;38763;53.096;6.062;2023-04-03T15:21:36;8.80;96.10
52899;DHT22;38763;53.096;6.062;2023-04-03T15:24:02;8.70;96.60
52899;DHT22;38763;53.096;6.062;2023-04-03T15:26:28;8.50;97.00
52899;DHT22;38763;53.096;6.062;2023-04-03T15:28:54;8.60;97.20
52899;DHT22;38763;53.096;6.062;2023-04-03T15:31:20;8.50;96.90
52899;DHT22;38763;53.096;6.062;2023-04-03T15:33:45;8.50;97.10
52899;DHT22;38763;53.096;6.062;2023-04-03T15:36:11;8.50;97.40
52899;DHT22;38763;53.096;6.062;2023-04-03T15:38:37;8.50;96.70
52899;DHT22;38763;53.096;6.062;2023-04-03T15:41:04;8.50;96.70
52899;DHT22;38763;53.096;6.062;2023-04-03T15:43:30;8.50;99.60
52899;DHT22;38763;53.096;6.062;2023-04-03T15:45:57;8.50;96.90
52899;DHT22;38763;53.096;6.062;2023-04-03T15:48:23;8.40;96.40
52899;DHT22;38763;53.096;6.062;2023-04-03T15:50:49;8.30;96.70
52899;DHT22;38763;53.096;6.062;2023-04-03T15:53:15;8.30;97.60
52899;DHT22;38763;53.096;6.062;2023-04-03T15:55:40;8.30;97.20
52899;DHT22;38763;53.096;6.062;2023-04-03T15:58:07;8.30;97.10
52899;DHT22;38763;53.096;6.062;2023-04-03T16:00:32;8.30;96.40
52899;DHT22;38763;53.096;6.062;2023-04-03T16:03:05;8.20;97.20
52899;DHT22;38763;53.096;6.062;2023-04-03T16:05:31;8.20;98.10
52899;DHT22;38763;53.096;6.062;2023-04-03T16:07:59;8.20;98.00
52899;DHT22;38763;53.096;6.062;2023-04-03T16:10:25;8.10;98.30
52899;DHT22;38763;53.096;6.062;2023-04-03T16:12:51;8.10;98.80
52899;DHT22;38763;53.096;6.062;2023-04-03T16:15:17;8.10;98.70
52899;DHT22;38763;53.096;6.062;2023-04-03T16:17:43;8.00;99.10
52899;DHT22;38763;53.096;6.062;2023-04-03T16:20:10;8.00;98.60
52899;DHT22;38763;53.096;6.062;2023-04-03T16:22:37;7.90;98.40
52899;DHT22;38763;53.096;6.062;2023-04-03T16:25:04;7.80;98.60
52899;DHT22;38763;53.096;6.062;2023-04-03T16:27:30;7.90;99.00
52899;DHT22;38763;53.096;6.062;2023-04-03T16:29:59;8.00;98.80
52899;DHT22;38763;53.096;6.062;2023-04-03T16:32:27;7.80;98.40
52899;DHT22;38763;53.096;6.062;2023-04-03T16:34:54;7.80;98.70
52899;DHT22;38763;53.096;6.062;2023-04-03T16:37:20;7.80;98.90
52899;DHT22;38763;53.096;6.062;2023-04-03T16:39:46;7.80;98.10
52899;DHT22;38763;53.096;6.062;2023-04-03T16:42:11;7.70;97.30
52899;DHT22;38763;53.096;6.062;2023-04-03T16:44:37;7.60;97.90
52899;DHT22;38763;53.096;6.062;2023-04-03T16:47:05;7.70;97.70
52899;DHT22;38763;53.096;6.062;2023-04-03T16:49:30;7.70;98.10
52899;DHT22;38763;53.096;6.062;2023-04-03T16:52:00;7.70;98.40
52899;DHT22;38763;53.096;6.062;2023-04-03T16:54:26;7.60;98.10
52899;DHT22;38763;53.096;6.062;2023-04-03T16:56:52;7.60;98.60
52899;DHT22;38763;53.096;6.062;2023-04-03T16:59:18;7.50;98.80
52899;DHT22;38763;53.096;6.062;2023-04-03T17:01:44;7.50;99.00
52899;DHT22;38763;53.096;6.062;2023-04-03T17:04:09;7.50;99.00
52899;DHT22;38763;53.096;6.062;2023-04-03T17:06:35;7.40;99.30
52899;DHT22;38763;53.096;6.062;2023-04-03T17:09:01;7.30;99.60
52899;DHT22;38763;53.096;6.062;2023-04-03T17:11:28;7.30;99.70
52899;DHT22;38763;53.096;6.062;2023-04-03T17:13:54;7.30;99.90
52899;DHT22;38763;53.096;6.062;2023-04-03T17:16:20;7.20;99.90
52899;DHT22;38763;53.096;6.062;2023-04-03T17:18:47;7.20;99.90
52899;DHT22;38763;53.096;6.062;2023-04-03T17:21:13;7.10;99.90
52899;DHT22;38763;53.096;6.062;2023-04-03T17:23:41;7.10;99.90
52899;DHT22;38763;53.096;6.062;2023-04-03T17:26:08;7.10;99.90
52899;DHT22;38763;53.096;6.062;2023-04-03T17:28:33;7.00;99.90
52899;DHT22;38763;53.096;6.062;2023-04-03T17:31:00;7.00;99.90
52899;DHT22;38763;53.096;6.062;2023-04-03T17:33:27;6.90;99.90